createdAt,value
2024-01-26T00:10:01.418Z,8.60
2024-01-26T00:20:03.985Z,8.60
2024-01-26T00:30:08.573Z,8.60
2024-01-26T00:40:12.154Z,8.70
2024-01-26T00:50:14.754Z,8.70
2024-01-26T01:00:17.537Z,8.80
2024-01-26T01:10:19.558Z,8.80
2024-01-26T01:20:21.802Z,8.90
2024-01-26T01:30:23.884Z,8.90
2024-01-26T01:40:25.994Z,9.00
2024-01-26T01:50:28.308Z,9.00
2024-01-26T02:00:31.261Z,9.00
2024-01-26T02:10:33.621Z,9.00
2024-01-26T02:20:43.780Z,9.10
2024-01-26T02:30:50.497Z,9.10
2024-01-26T02:40:52.533Z,9.10
2024-01-26T02:50:54.613Z,9.20
2024-01-26T03:00:56.732Z,9.20
2024-01-26T03:10:58.926Z,9.20
2024-01-26T03:21:02.407Z,9.20
2024-01-26T03:31:04.619Z,9.30
2024-01-26T03:41:06.784Z,9.30
2024-01-26T03:51:09.056Z,9.40
2024-01-26T04:01:11.214Z,9.40
2024-01-26T04:11:13.322Z,9.40
2024-01-26T04:21:15.554Z,9.50
2024-01-26T04:31:18.265Z,9.50
2024-01-26T04:41:20.604Z,9.60
2024-01-26T04:51:22.630Z,9.70
2024-01-26T05:01:25.361Z,9.70
2024-01-26T05:11:27.677Z,9.70
2024-01-26T05:21:32.650Z,9.80
2024-01-26T05:31:41.631Z,9.90
2024-01-26T05:41:43.864Z,9.90
2024-01-26T05:51:45.991Z,9.90
2024-01-26T06:01:48.018Z,10.00
2024-01-26T06:11:50.671Z,9.90
2024-01-26T06:21:52.987Z,9.90
2024-01-26T06:31:55.505Z,10.00
2024-01-26T06:41:57.609Z,10.00
2024-01-26T06:52:00.044Z,10.00
2024-01-26T07:02:02.109Z,10.00
2024-01-26T07:12:04.920Z,10.00
2024-01-26T07:22:07.002Z,10.10
2024-01-26T07:32:09.107Z,10.10
2024-01-26T07:42:11.328Z,10.10
2024-01-26T07:52:13.412Z,10.20
2024-01-26T08:02:15.720Z,10.20
2024-01-26T08:12:25.215Z,10.20
2024-01-26T08:22:36.790Z,10.20
2024-01-26T08:32:39.271Z,10.20
2024-01-26T08:42:41.598Z,10.30
2024-01-26T08:52:43.728Z,10.30
2024-01-26T09:02:46.074Z,10.40
2024-01-26T09:12:48.256Z,10.40
2024-01-26T09:22:50.350Z,10.40
2024-01-26T09:32:52.661Z,10.50
2024-01-26T09:42:55.024Z,10.50
2024-01-26T09:53:00.043Z,10.60
2024-01-26T10:03:02.937Z,10.60
2024-01-26T10:13:08.441Z,10.70
2024-01-26T10:23:10.569Z,10.60
2024-01-26T10:33:14.227Z,10.60
2024-01-26T10:43:18.417Z,10.60
2024-01-26T10:53:22.564Z,10.60
2024-01-26T11:03:25.566Z,10.70
2024-01-26T11:13:28.901Z,10.70
2024-01-26T11:23:46.016Z,10.80
2024-01-26T11:33:50.761Z,10.80
2024-01-26T11:43:54.134Z,10.80
2024-01-26T11:53:57.103Z,10.80
2024-01-26T12:03:59.431Z,10.80
2024-01-26T12:14:02.079Z,10.80
2024-01-26T12:24:15.830Z,10.90
2024-01-26T12:34:18.701Z,10.90
2024-01-26T12:44:28.898Z,10.90
2024-01-26T12:54:31.356Z,11.00
2024-01-26T13:04:33.470Z,11.00
2024-01-26T13:14:35.636Z,11.10
2024-01-26T13:24:37.903Z,11.20
2024-01-26T13:34:41.267Z,11.30
2024-01-26T13:44:44.830Z,11.40
2024-01-26T13:54:47.072Z,11.40
2024-01-26T14:04:49.106Z,11.50
2024-01-26T14:14:53.564Z,11.50
2024-01-26T14:24:56.163Z,11.50
2024-01-26T14:34:58.530Z,11.30
2024-01-26T14:45:00.728Z,11.00
2024-01-26T14:55:02.852Z,10.70
2024-01-26T15:05:08.339Z,10.40
2024-01-26T15:15:12.680Z,10.00
2024-01-26T15:25:15.068Z,9.80
2024-01-26T15:35:17.193Z,9.60
2024-01-26T15:45:19.597Z,9.30
2024-01-26T15:55:21.748Z,9.00
2024-01-26T16:05:23.858Z,8.70
2024-01-26T16:15:25.974Z,8.50
2024-01-26T16:25:29.947Z,8.30
2024-01-26T16:35:34.807Z,8.20
2024-01-26T16:45:36.996Z,8.00
2024-01-26T16:55:39.144Z,7.90
2024-01-26T17:05:43.002Z,7.80
2024-01-26T17:15:45.098Z,7.70
2024-01-26T17:25:47.151Z,7.60
2024-01-26T17:35:49.312Z,7.50
2024-01-26T17:45:51.454Z,7.50
2024-01-26T17:55:53.552Z,7.40
2024-01-26T18:05:55.717Z,7.30
2024-01-26T18:15:59.108Z,7.30
2024-01-26T18:26:01.265Z,7.30
2024-01-26T18:36:03.673Z,7.30
2024-01-26T18:46:05.861Z,7.40
2024-01-26T18:56:08.335Z,7.40
2024-01-26T19:06:11.064Z,7.30
2024-01-26T19:16:16.330Z,7.30
2024-01-26T19:26:22.538Z,7.20
2024-01-26T19:36:28.715Z,7.20
2024-01-26T19:46:31.209Z,7.00
2024-01-26T19:56:34.021Z,6.90
2024-01-26T20:06:36.743Z,6.80
2024-01-26T20:16:38.997Z,6.70
2024-01-26T20:26:41.410Z,6.60
2024-01-26T20:36:43.647Z,6.60
2024-01-26T20:46:46.826Z,6.60
2024-01-26T20:56:49.091Z,6.70
2024-01-26T21:06:51.536Z,6.70
2024-01-26T21:16:54.263Z,6.80
2024-01-26T21:26:57.598Z,6.90
2024-01-26T21:37:00.116Z,6.90
2024-01-26T21:47:03.171Z,6.90
2024-01-26T21:57:05.727Z,6.90
2024-01-26T22:07:07.953Z,6.90
2024-01-26T22:17:10.041Z,6.90
2024-01-26T22:27:12.146Z,6.80
2024-01-26T22:37:15.307Z,6.80
2024-01-26T22:47:17.421Z,6.70
2024-01-26T22:57:20.145Z,6.60
2024-01-26T23:07:22.229Z,6.60
2024-01-26T23:17:24.336Z,6.50
2024-01-26T23:27:26.894Z,6.40
2024-01-26T23:37:29.675Z,6.30
2024-01-26T23:47:31.892Z,6.30
2024-01-26T23:57:34.534Z,6.20
